Time;durP1;ratioP1;P1;durP2;ratioP2;P2;SDS_P1;SDS_P2;PMS_P1;PMS_P2;Temp;Humidity;BMP_temperature;BMP_pressure;BME280_temperature;BME280_humidity;BME280_pressure;Samples;Min_cycle;Max_cycle;Signal;HPM_P1;HPM_P2
2022/09/07 04:34:18;;;;;;;24.47;22.80;;;19.20;99.90;;;;;;5407970;23;20576;-73
2022/09/07 04:36:44;;;;;;;23.00;21.47;;;19.10;99.90;;;;;;4913162;29;20517;-76
2022/09/07 04:39:11;;;;;;;23.83;22.23;;;19.10;99.90;;;;;;4914973;29;20472;-74
2022/09/07 04:41:38;;;;;;;22.20;20.70;;;19.00;99.90;;;;;;4914667;29;20469;-74
2022/09/07 04:44:05;;;;;;;22.53;21.20;;;19.00;99.90;;;;;;4915238;29;20518;-74
2022/09/07 04:46:33;;;;;;;23.93;21.37;;;19.10;99.90;;;;;;4915225;29;20478;-74
2022/09/07 04:49:01;;;;;;;23.43;21.80;;;19.10;99.90;;;;;;4914563;29;20450;-75
2022/09/07 04:51:32;;;;;;;22.83;21.60;;;19.10;99.90;;;;;;4914567;29;20458;-75
2022/09/07 04:54:00;;;;;;;21.03;19.93;;;19.10;99.90;;;;;;4914204;29;20462;-74
2022/09/07 04:56:27;;;;;;;21.80;20.50;;;19.00;99.90;;;;;;4914321;29;20490;-74
2022/09/07 04:58:54;;;;;;;22.93;21.00;;;19.00;99.90;;;;;;4914305;29;20477;-75
2022/09/07 05:01:23;;;;;;;21.20;20.00;;;19.10;99.90;;;;;;4914852;29;20458;-76
2022/09/07 05:03:51;;;;;;;20.03;18.87;;;19.00;99.90;;;;;;4914523;29;20462;-76
2022/09/07 05:06:20;;;;;;;20.43;18.93;;;19.00;99.90;;;;;;4914844;29;20458;-76
2022/09/07 05:08:51;;;;;;;19.10;18.03;;;18.90;99.90;;;;;;4914462;29;20458;-75
2022/09/07 05:11:19;;;;;;;20.50;19.20;;;18.90;99.90;;;;;;4914615;29;20486;-75
2022/09/07 05:13:46;;;;;;;23.77;21.83;;;18.90;99.90;;;;;;4914300;29;20458;-76
2022/09/07 05:16:17;;;;;;;20.93;19.50;;;18.80;99.90;;;;;;4914263;29;20490;-76
2022/09/07 05:18:44;;;;;;;23.07;21.50;;;18.80;99.90;;;;;;4914096;29;20465;-77
2022/09/07 05:21:12;;;;;;;21.37;20.07;;;18.80;99.90;;;;;;4914051;29;20727;-75
2022/09/07 05:23:39;;;;;;;21.17;19.60;;;18.80;99.90;;;;;;4914114;29;20486;-76
2022/09/07 05:26:08;;;;;;;22.57;20.80;;;18.90;99.90;;;;;;4914044;29;20457;-76
2022/09/07 05:28:36;;;;;;;22.67;21.17;;;18.80;99.90;;;;;;4914056;29;20462;-76
2022/09/07 05:31:07;;;;;;;22.87;21.37;;;18.80;99.90;;;;;;4914109;29;20474;-75
2022/09/07 05:33:34;;;;;;;22.60;20.57;;;18.80;99.90;;;;;;4913964;29;20494;-74
2022/09/07 05:36:01;;;;;;;20.43;19.10;;;18.80;99.90;;;;;;4913657;29;20455;-75
2022/09/07 05:38:28;;;;;;;21.73;20.20;;;18.90;99.90;;;;;;4913934;29;20454;-74
2022/09/07 05:40:55;;;;;;;22.90;21.30;;;18.90;99.90;;;;;;4913546;29;21091;-75
2022/09/07 05:43:23;;;;;;;23.23;21.20;;;19.00;99.90;;;;;;4913678;29;20473;-75
2022/09/07 05:45:53;;;;;;;21.27;19.80;;;19.10;99.90;;;;;;4913695;29;20457;-77
2022/09/07 05:48:20;;;;;;;21.97;20.17;;;19.40;99.90;;;;;;4913682;29;20454;-75
2022/09/07 05:50:50;;;;;;;22.23;20.70;;;19.80;99.90;;;;;;4913554;29;20465;-76
2022/09/07 05:53:18;;;;;;;18.00;16.50;;;20.10;99.90;;;;;;4913282;29;20893;-77
2022/09/07 05:55:44;;;;;;;18.97;17.87;;;20.40;99.90;;;;;;4913929;29;20951;-80
2022/09/07 05:58:11;;;;;;;18.80;17.50;;;20.70;99.90;;;;;;4913420;29;20893;-77
2022/09/07 06:00:39;;;;;;;19.03;17.77;;;21.00;99.90;;;;;;4913407;29;20829;-79
2022/09/07 06:03:06;;;;;;;17.30;16.40;;;21.30;99.90;;;;;;4913802;29;20458;-80
2022/09/07 06:05:33;;;;;;;17.57;16.20;;;21.30;99.90;;;;;;4913847;29;20873;-80
2022/09/07 06:07:59;;;;;;;16.67;15.63;;;21.60;99.90;;;;;;4913552;29;20876;-82
2022/09/07 06:10:26;;;;;;;16.40;15.40;;;21.90;99.90;;;;;;4913692;29;20781;-82
2022/09/07 06:12:53;;;;;;;17.37;16.07;;;22.10;99.90;;;;;;4908414;29;20648;-81
2022/09/07 06:15:20;;;;;;;16.90;15.90;;;22.00;99.90;;;;;;4912600;29;20493;-83
2022/09/07 06:17:48;;;;;;;16.00;15.30;;;21.90;99.90;;;;;;4916163;29;21008;-84
2022/09/07 06:20:14;;;;;;;17.27;16.00;;;22.10;99.90;;;;;;4917602;29;20454;-85
2022/09/07 06:22:41;;;;;;;17.50;16.40;;;22.40;99.90;;;;;;4918414;29;20458;-85
2022/09/07 06:25:11;;;;;;;15.50;14.73;;;22.70;99.90;;;;;;4918436;29;20964;-86
2022/09/07 06:27:38;;;;;;;15.17;14.37;;;23.00;99.90;;;;;;4916390;29;20456;-87
2022/09/07 06:30:07;;;;;;;14.57;13.87;;;23.40;99.90;;;;;;4922369;29;20454;-87
2022/09/07 06:32:42;;;;;;;15.50;14.50;;;24.00;99.90;;;;;;4928205;29;20565;-87
2022/09/07 06:35:12;;;;;;;14.23;13.53;;;24.40;99.90;;;;;;4923634;29;20481;-87
2022/09/07 06:37:40;;;;;;;16.27;15.27;;;24.50;99.90;;;;;;4918055;29;20598;-85
2022/09/07 06:40:09;;;;;;;15.27;14.50;;;24.50;99.90;;;;;;4918218;29;20446;-86
2022/09/07 06:42:40;;;;;;;15.03;13.93;;;24.80;99.90;;;;;;4917013;29;20890;-85
2022/09/07 06:45:15;;;;;;;15.83;14.93;;;24.90;99.90;;;;;;4918802;29;20459;-86
2022/09/07 06:47:42;;;;;;;15.23;14.30;;;24.90;99.90;;;;;;4916215;29;20458;-85
2022/09/07 06:50:11;;;;;;;15.23;14.07;;;25.30;99.90;;;;;;4917363;29;20454;-86
2022/09/07 06:52:38;;;;;;;16.30;15.30;;;25.30;99.90;;;;;;4913298;29;20525;-85
2022/09/07 06:55:05;;;;;;;17.57;15.73;;;24.90;99.90;;;;;;4914046;29;20513;-85
2022/09/07 06:57:32;;;;;;;15.83;14.83;;;24.40;99.90;;;;;;4913618;29;20494;-85
2022/09/07 06:59:59;;;;;;;15.13;14.40;;;24.30;99.90;;;;;;4914373;29;20973;-85
2022/09/07 07:02:25;;;;;;;15.60;14.40;;;24.60;99.90;;;;;;4912929;29;20458;-85
2022/09/07 07:04:52;;;;;;;15.80;14.80;;;24.50;99.90;;;;;;4916299;29;20458;-85
2022/09/07 07:07:20;;;;;;;15.30;14.40;;;24.40;99.90;;;;;;4917242;29;20462;-85
2022/09/07 07:09:49;;;;;;;14.70;14.00;;;24.30;99.90;;;;;;4921808;29;20458;-85
2022/09/07 07:12:16;;;;;;;15.33;14.53;;;24.40;99.90;;;;;;4919030;29;20458;-86
2022/09/07 07:14:43;;;;;;;15.50;14.40;;;24.80;99.90;;;;;;4917584;29;20462;-85
2022/09/07 07:17:09;;;;;;;15.33;14.30;;;25.20;99.90;;;;;;4919321;29;20606;-85
2022/09/07 07:19:36;;;;;;;15.20;14.23;;;25.80;99.90;;;;;;4916131;29;20462;-86
2022/09/07 07:22:03;;;;;;;15.37;13.80;;;26.60;99.90;;;;;;4918337;29;20458;-86
2022/09/07 07:24:31;;;;;;;14.07;13.27;;;26.70;99.90;;;;;;4915821;29;20454;-87
2022/09/07 07:26:58;;;;;;;16.20;15.20;;;26.60;99.90;;;;;;4915533;29;20496;-78
2022/09/07 07:29:24;;;;;;;15.20;14.50;;;26.70;99.90;;;;;;4915182;29;20454;-79
2022/09/07 07:31:51;;;;;;;15.80;14.67;;;27.10;99.90;;;;;;4915516;29;20461;-79
2022/09/07 07:34:18;;;;;;;14.97;14.17;;;27.20;99.90;;;;;;4914912;29;20508;-79
2022/09/07 07:36:44;;;;;;;14.97;14.17;;;27.20;99.90;;;;;;4915047;29;20458;-78
2022/09/07 07:39:11;;;;;;;15.90;14.80;;;27.20;99.90;;;;;;4914873;29;20457;-79
2022/09/07 07:41:39;;;;;;;13.03;12.33;;;27.20;99.90;;;;;;4915586;29;20454;-79
2022/09/07 07:44:06;;;;;;;15.17;14.00;;;27.00;99.90;;;;;;4915245;29;20457;-80
2022/09/07 07:46:32;;;;;;;15.80;14.90;;;27.20;99.90;;;;;;4915392;29;20454;-79
2022/09/07 07:48:59;;;;;;;15.10;14.20;;;27.50;99.90;;;;;;4914761;29;20550;-80
2022/09/07 07:51:26;;;;;;;15.77;14.83;;;27.50;99.90;;;;;;4915014;29;20458;-80
2022/09/07 07:53:53;;;;;;;15.83;14.90;;;27.20;99.90;;;;;;4915383;29;20497;-80
2022/09/07 07:56:19;;;;;;;16.17;15.07;;;27.00;99.90;;;;;;4915745;29;20458;-79
2022/09/07 07:58:48;;;;;;;15.97;14.87;;;27.30;99.90;;;;;;4915043;29;20952;-80
2022/09/07 08:01:17;;;;;;;16.20;15.10;;;27.60;99.90;;;;;;4914874;29;20462;-79
2022/09/07 08:03:45;;;;;;;16.67;15.30;;;27.90;99.90;;;;;;4915018;29;20455;-80
2022/09/07 08:06:13;;;;;;;15.57;14.60;;;28.00;99.90;;;;;;4915337;29;20474;-80
2022/09/07 08:08:41;;;;;;;16.30;15.20;;;28.70;99.40;;;;;;4916227;29;20454;-80
2022/09/07 08:11:10;;;;;;;16.67;15.47;;;28.90;98.50;;;;;;4915041;29;20573;-81
2022/09/07 08:13:39;;;;;;;15.80;14.87;;;29.40;97.30;;;;;;4914620;29;20458;-80
2022/09/07 08:16:08;;;;;;;15.20;14.30;;;29.80;96.10;;;;;;4914312;29;20462;-81
2022/09/07 08:18:36;;;;;;;15.80;14.70;;;29.90;96.10;;;;;;4915610;29;20493;-80
2022/09/07 08:21:05;;;;;;;16.33;15.20;;;30.20;95.50;;;;;;4914728;29;20454;-80
2022/09/07 08:23:33;;;;;;;16.40;15.17;;;31.00;93.50;;;;;;4915263;29;20882;-80
2022/09/07 08:26:00;;;;;;;15.13;14.40;;;31.30;92.30;;;;;;4914706;29;20454;-81
2022/09/07 08:28:28;;;;;;;16.60;15.60;;;32.10;90.50;;;;;;4914835;29;20840;-80
2022/09/07 08:30:56;;;;;;;15.43;14.50;;;33.20;85.80;;;;;;4914346;29;20501;-79
2022/09/07 08:33:24;;;;;;;15.17;14.37;;;32.60;84.30;;;;;;4914100;29;21073;-80
2022/09/07 08:35:56;;;;;;;15.80;14.90;;;32.70;85.50;;;;;;4915673;29;20946;-78
2022/09/07 08:38:23;;;;;;;16.83;15.93;;;33.60;82.10;;;;;;4907356;29;21006;-79
2022/09/07 08:40:50;;;;;;;17.30;16.10;;;33.90;80.40;;;;;;4896870;29;20459;-84
2022/09/07 08:43:29;;;;;;;17.17;16.10;;;34.80;77.30;;;;;;4895894;29;20919;-79
2022/09/07 08:46:02;;;;;;;16.40;15.40;;;34.10;77.60;;;;;;4904353;29;20482;-81
2022/09/07 08:48:33;;;;;;;17.20;16.27;;;34.70;76.20;;;;;;4914392;29;20462;-79
2022/09/07 08:51:05;;;;;;;16.20;15.40;;;34.00;76.60;;;;;;4913817;29;20454;-79
2022/09/07 08:53:32;;;;;;;16.13;15.40;;;34.20;77.80;;;;;;4912117;29;20869;-77
2022/09/07 08:56:02;;;;;;;16.10;15.10;;;35.40;74.20;;;;;;4894876;29;20932;-78
2022/09/07 08:58:41;;;;;;;17.07;16.13;;;36.20;69.60;;;;;;4896496;29;20571;-78
2022/09/07 09:01:11;;;;;;;18.30;16.70;;;36.60;68.60;;;;;;4897260;29;20831;-80
2022/09/07 09:03:41;;;;;;;16.03;15.33;;;36.20;66.50;;;;;;4912799;29;20465;-80
2022/09/07 09:06:14;;;;;;;15.70;14.73;;;35.30;68.70;;;;;;4914298;29;20462;-79
2022/09/07 09:08:56;;;;;;;16.53;15.50;;;35.00;69.70;;;;;;4913901;29;20530;-79
2022/09/07 09:11:35;;;;;;;15.53;14.60;;;35.20;68.20;;;;;;4914180;29;20533;-78
2022/09/07 09:14:06;;;;;;;17.00;15.57;;;35.40;68.20;;;;;;4914202;29;20545;-76
2022/09/07 09:16:37;;;;;;;14.73;13.93;;;35.20;68.70;;;;;;4903598;29;20487;-78
2022/09/07 09:19:35;;;;;;;15.37;14.60;;;35.60;67.40;;;;;;4902444;29;20491;-79
2022/09/07 09:22:09;;;;;;;16.97;15.93;;;35.80;66.40;;;;;;4891387;29;20470;-79
2022/09/07 09:24:40;;;;;;;16.27;15.30;;;34.20;69.60;;;;;;4896244;29;20454;-80
2022/09/07 09:27:09;;;;;;;14.83;14.00;;;33.40;72.50;;;;;;4895411;29;20554;-79
2022/09/07 09:29:36;;;;;;;15.30;14.47;;;32.80;74.80;;;;;;4895150;29;20462;-77
2022/09/07 09:32:35;;;;;;;16.33;15.60;;;33.30;74.20;;;;;;4899599;29;20567;-76
2022/09/07 09:35:11;;;;;;;16.17;15.27;;;34.40;71.10;;;;;;4896172;29;20563;-76
2022/09/07 09:37:39;;;;;;;17.43;16.27;;;34.60;70.30;;;;;;4895198;29;20501;-76
2022/09/07 09:40:17;;;;;;;16.63;15.53;;;35.00;69.70;;;;;;4894994;29;20460;-79
2022/09/07 09:42:44;;;;;;;16.87;15.97;;;35.00;68.20;;;;;;4902478;29;20458;-78
2022/09/07 09:45:18;;;;;;;16.80;15.80;;;34.20;69.90;;;;;;4908878;29;20462;-77
2022/09/07 09:47:49;;;;;;;17.27;16.20;;;33.90;71.00;;;;;;4913177;29;20513;-77
2022/09/07 09:50:21;;;;;;;16.80;15.87;;;34.80;69.10;;;;;;4913680;29;20477;-79
2022/09/07 09:52:49;;;;;;;16.83;15.87;;;34.60;68.90;;;;;;4914953;29;20481;-79
2022/09/07 09:55:24;;;;;;;16.13;15.13;;;33.50;72.10;;;;;;4912650;29;20703;-78
2022/09/07 09:57:52;;;;;;;16.73;15.83;;;32.50;75.10;;;;;;4913218;29;20481;-78
2022/09/07 10:00:21;;;;;;;16.27;15.37;;;32.00;77.10;;;;;;4912940;29;20552;-78
2022/09/07 10:03:03;;;;;;;15.90;15.30;;;31.70;78.70;;;;;;4913185;29;20464;-79
2022/09/07 10:05:35;;;;;;;18.00;17.10;;;31.80;79.30;;;;;;4912895;29;20930;-78
2022/09/07 10:08:06;;;;;;;17.40;16.50;;;32.80;76.90;;;;;;4918381;29;20870;-79
2022/09/07 10:10:32;;;;;;;17.10;15.90;;;34.00;73.80;;;;;;4917278;29;20521;-78
2022/09/07 10:12:59;;;;;;;16.73;15.83;;;35.20;68.50;;;;;;4916953;29;20466;-80
2022/09/07 10:15:30;;;;;;;16.90;15.90;;;35.30;66.90;;;;;;4914140;29;20462;-82
2022/09/07 10:17:58;;;;;;;19.53;18.00;;;34.60;69.70;;;;;;4914050;29;20853;-81
2022/09/07 10:20:35;;;;;;;17.50;16.53;;;34.10;70.50;;;;;;4914863;29;20848;-81
2022/09/07 10:23:04;;;;;;;16.10;15.40;;;33.80;72.10;;;;;;4914325;29;20465;-80
2022/09/07 10:25:33;;;;;;;16.60;15.80;;;33.10;72.30;;;;;;4912249;29;20514;-79
2022/09/07 10:28:04;;;;;;;16.57;15.60;;;32.50;73.80;;;;;;4912062;29;20785;-80
2022/09/07 10:30:39;;;;;;;15.90;15.00;;;31.90;74.80;;;;;;4913105;29;20474;-78
2022/09/07 10:33:16;;;;;;;15.43;14.63;;;30.90;79.00;;;;;;4913432;29;20470;-78
2022/09/07 10:35:50;;;;;;;16.50;15.27;;;30.30;81.80;;;;;;4913335;29;20908;-78
2022/09/07 10:38:18;;;;;;;16.43;15.13;;;29.90;83.30;;;;;;4913933;29;20493;-78
2022/09/07 10:40:50;;;;;;;15.73;14.70;;;29.80;85.90;;;;;;4914018;29;20876;-80
2022/09/07 10:43:31;;;;;;;16.27;15.17;;;29.80;86.20;;;;;;4914347;29;20462;-78
2022/09/07 10:46:16;;;;;;;15.50;14.80;;;30.40;84.90;;;;;;4915866;29;20458;-78
2022/09/07 10:48:55;;;;;;;15.50;14.67;;;31.20;80.70;;;;;;4912946;29;20458;-80
2022/09/07 10:51:32;;;;;;;15.20;14.40;;;31.20;80.40;;;;;;4913248;29;20458;-80
2022/09/07 10:54:07;;;;;;;16.20;15.23;;;31.00;81.30;;;;;;4912444;29;20486;-79
2022/09/07 10:56:45;;;;;;;15.17;14.37;;;30.50;83.00;;;;;;4912670;29;20517;-79
2022/09/07 10:59:30;;;;;;;15.10;14.30;;;30.10;85.10;;;;;;4912340;29;21017;-78
2022/09/07 11:02:08;;;;;;;16.20;15.10;;;29.60;87.00;;;;;;4912286;29;20501;-79
2022/09/07 11:04:58;;;;;;;16.03;14.97;;;29.40;88.60;;;;;;4912615;29;20462;-76
2022/09/07 11:07:49;;;;;;;15.83;15.00;;;29.10;90.00;;;;;;4911984;29;20458;-76
2022/09/07 11:10:25;;;;;;;15.97;15.07;;;29.10;90.30;;;;;;4911845;29;20458;-76
2022/09/07 11:12:57;;;;;;;15.97;14.80;;;29.00;91.10;;;;;;4912121;29;20465;-76
2022/09/07 11:15:27;;;;;;;15.63;14.73;;;28.90;91.40;;;;;;4911850;29;20954;-75
2022/09/07 11:17:57;;;;;;;15.93;15.03;;;28.50;92.20;;;;;;4911994;29;20477;-78
2022/09/07 11:20:28;;;;;;;15.97;15.27;;;28.20;94.00;;;;;;4911727;29;20469;-76
2022/09/07 11:23:04;;;;;;;16.70;15.67;;;28.00;95.00;;;;;;4911849;29;20518;-76
2022/09/07 11:25:36;;;;;;;16.33;15.17;;;28.00;95.50;;;;;;4911872;29;20462;-75
2022/09/07 11:28:12;;;;;;;15.50;14.80;;;28.00;94.70;;;;;;4911925;29;20947;-76
2022/09/07 11:30:45;;;;;;;16.47;15.43;;;28.00;95.20;;;;;;4912017;29;20460;-75
2022/09/07 11:33:16;;;;;;;16.00;14.80;;;28.60;94.50;;;;;;4911501;29;20542;-77
2022/09/07 11:35:50;;;;;;;16.40;15.50;;;30.60;91.10;;;;;;4911972;29;20455;-87
2022/09/07 11:38:27;;;;;;;15.83;15.13;;;32.20;85.90;;;;;;4913264;29;20482;-89
2022/09/07 11:41:03;;;;;;;16.90;16.00;;;33.50;79.10;;;;;;4912993;29;20522;-87
2022/09/07 11:43:35;;;;;;;16.40;15.20;;;34.70;76.40;;;;;;4913117;29;20458;-89
2022/09/07 11:46:06;;;;;;;18.27;17.07;;;35.60;71.10;;;;;;4914505;29;20458;-89
2022/09/07 11:48:39;;;;;;;19.10;17.60;;;36.00;68.50;;;;;;4914971;29;20487;-91
2022/09/07 11:51:13;;;;;;;17.00;16.23;;;36.60;66.00;;;;;;4920114;29;20458;-91
2022/09/07 11:53:45;;;;;;;17.60;16.90;;;37.70;63.20;;;;;;4919853;29;20466;-89
2022/09/07 11:56:17;;;;;;;17.97;17.13;;;38.00;60.10;;;;;;4916981;29;20458;-88
2022/09/07 11:59:13;;;;;;;18.70;17.70;;;38.10;59.20;;;;;;4917776;29;20553;-90
2022/09/07 12:01:51;;;;;;;18.47;17.43;;;37.60;59.20;;;;;;4920395;29;20458;-89
2022/09/07 12:04:39;;;;;;;18.10;17.10;;;38.30;59.00;;;;;;4925185;29;20503;-89
2022/09/07 12:07:32;;;;;;;16.73;15.83;;;38.40;57.80;;;;;;4921316;29;20465;-88
2022/09/07 12:10:30;;;;;;;19.43;18.63;;;38.00;56.90;;;;;;4918099;29;20462;-87
2022/09/07 12:13:28;;;;;;;17.77;17.07;;;37.90;57.70;;;;;;4891228;29;20461;-89
2022/09/07 12:16:03;;;;;;;16.80;16.10;;;37.70;56.60;;;;;;4924878;29;20517;-88
2022/09/07 12:18:53;;;;;;;16.40;15.50;;;37.10;58.40;;;;;;4930774;29;20502;-87
2022/09/07 12:21:40;;;;;;;17.80;16.63;;;36.80;58.20;;;;;;4940307;29;20445;-89
2022/09/07 12:24:38;;;;;;;16.50;15.80;;;36.70;58.30;;;;;;4939787;29;20466;-88
2022/09/07 12:27:10;;;;;;;17.03;16.13;;;36.10;58.50;;;;;;4939659;29;20458;-90
2022/09/07 12:29:37;;;;;;;16.30;15.60;;;36.60;58.30;;;;;;4939200;29;20434;-89
2022/09/07 12:32:06;;;;;;;16.50;15.60;;;36.60;57.10;;;;;;4939171;29;20442;-87
2022/09/07 12:34:50;;;;;;;17.43;16.23;;;36.10;58.60;;;;;;4934986;29;20522;-91
2022/09/07 12:37:39;;;;;;;15.03;14.50;;;36.30;56.80;;;;;;4920230;29;20934;-90
2022/09/07 12:40:43;;;;;;;16.37;15.50;;;37.40;54.50;;;;;;4917991;29;20493;-88
2022/09/07 12:43:57;;;;;;;16.23;15.53;;;37.40;54.20;;;;;;4916806;29;20481;-90
2022/09/07 12:46:48;;;;;;;17.20;16.40;;;37.20;55.40;;;;;;4915240;29;20480;-86
2022/09/07 12:49:35;;;;;;;16.33;15.30;;;35.90;57.30;;;;;;4914194;29;20454;-86
2022/09/07 12:52:12;;;;;;;16.80;15.90;;;34.20;60.40;;;;;;4915496;29;20451;-87
2022/09/07 12:54:45;;;;;;;15.90;15.20;;;33.10;63.00;;;;;;4920323;29;20881;-87
2022/09/07 12:57:23;;;;;;;15.80;15.10;;;32.10;65.50;;;;;;4917556;29;20716;-88
2022/09/07 13:00:06;;;;;;;15.83;14.83;;;31.50;67.20;;;;;;4916266;29;20498;-89
2022/09/07 13:03:01;;;;;;;14.30;13.60;;;31.80;67.60;;;;;;4915846;29;20566;-89
2022/09/07 13:05:43;;;;;;;15.00;14.17;;;32.00;65.70;;;;;;4916437;29;20461;-89
2022/09/07 13:08:37;;;;;;;15.73;14.80;;;32.90;63.80;;;;;;4918100;29;20485;-89
2022/09/07 13:11:30;;;;;;;15.53;14.47;;;33.90;61.40;;;;;;4920062;29;20451;-88
2022/09/07 13:13:59;;;;;;;16.00;15.20;;;34.20;59.70;;;;;;4925386;29;20482;-88
2022/09/07 13:16:30;;;;;;;15.67;15.00;;;32.90;61.60;;;;;;4919226;29;20469;-88
2022/09/07 13:19:02;;;;;;;15.73;14.93;;;32.50;63.60;;;;;;4918679;29;20497;-90
2022/09/07 13:21:47;;;;;;;15.70;15.00;;;32.70;63.40;;;;;;4917864;29;20490;-90
2022/09/07 13:24:52;;;;;;;16.57;15.80;;;33.20;62.10;;;;;;4918184;29;20482;-90
2022/09/07 13:27:45;;;;;;;15.47;14.60;;;35.20;59.50;;;;;;4918261;29;20970;-91
2022/09/07 13:30:45;;;;;;;15.83;15.17;;;35.20;57.60;;;;;;4917484;29;20828;-91
2022/09/07 13:33:46;;;;;;;16.30;15.70;;;35.50;56.50;;;;;;4919616;29;21313;-91
2022/09/07 13:36:38;;;;;;;16.00;15.20;;;35.80;55.80;;;;;;4919212;29;20724;-91
2022/09/07 13:39:10;;;;;;;16.37;15.63;;;35.00;56.00;;;;;;4919673;29;20585;-90
2022/09/07 13:41:41;;;;;;;15.87;15.07;;;35.00;56.30;;;;;;4919550;29;20465;-90
2022/09/07 13:44:21;;;;;;;17.60;16.70;;;35.00;56.20;;;;;;4918910;29;20530;-91
2022/09/07 13:47:01;;;;;;;16.47;15.67;;;34.80;56.20;;;;;;4916690;29;20458;-90
2022/09/07 13:49:42;;;;;;;14.83;14.03;;;34.90;56.50;;;;;;4919141;29;20459;-90
2022/09/07 13:52:16;;;;;;;15.87;15.20;;;34.60;56.50;;;;;;4918499;29;20945;-91
2022/09/07 13:55:05;;;;;;;14.70;14.10;;;34.50;56.90;;;;;;4919418;29;20465;-90
2022/09/07 13:57:44;;;;;;;16.40;15.47;;;34.90;55.90;;;;;;4918399;29;20458;-89
2022/09/07 14:00:21;;;;;;;16.00;15.40;;;34.70;58.50;;;;;;4915816;29;20490;-90
2022/09/07 14:02:52;;;;;;;15.77;15.00;;;34.50;55.50;;;;;;4917094;29;20465;-90
2022/09/07 14:05:21;;;;;;;15.93;15.23;;;34.30;55.90;;;;;;4919146;29;20451;-89
2022/09/07 14:07:49;;;;;;;15.70;14.90;;;34.50;55.90;;;;;;4914442;29;20780;-89
2022/09/07 14:10:18;;;;;;;14.93;14.13;;;34.40;56.50;;;;;;4913887;29;20446;-88
2022/09/07 14:12:48;;;;;;;16.10;15.10;;;34.40;55.70;;;;;;4910101;29;20534;-87
2022/09/07 14:15:20;;;;;;;15.60;15.00;;;33.80;57.30;;;;;;4902733;29;20638;-88
2022/09/07 14:17:47;;;;;;;15.67;15.00;;;33.10;57.20;;;;;;4905607;29;20461;-87
2022/09/07 14:20:17;;;;;;;16.83;15.90;;;32.50;58.10;;;;;;4909615;29;20487;-88
2022/09/07 14:22:44;;;;;;;15.43;14.57;;;32.10;58.90;;;;;;4919009;29;20459;-87
2022/09/07 14:25:21;;;;;;;15.70;14.53;;;31.60;60.50;;;;;;4907815;29;20454;-88
2022/09/07 14:27:48;;;;;;;15.00;14.20;;;31.30;60.20;;;;;;4911656;29;20454;-88
2022/09/07 14:30:21;;;;;;;15.63;14.90;;;31.10;61.10;;;;;;4917939;29;20452;-87
2022/09/07 14:32:50;;;;;;;14.50;13.80;;;30.60;61.60;;;;;;4910020;29;20464;-88
2022/09/07 14:35:19;;;;;;;15.53;14.83;;;30.20;62.80;;;;;;4917273;29;20542;-89
2022/09/07 14:37:49;;;;;;;15.00;14.20;;;29.90;64.40;;;;;;4910807;29;20478;-88
2022/09/07 14:40:20;;;;;;;14.97;14.07;;;29.90;64.70;;;;;;4909035;29;21074;-89
2022/09/07 14:42:49;;;;;;;14.47;13.87;;;30.00;64.00;;;;;;4912836;29;20463;-88
2022/09/07 14:45:18;;;;;;;15.90;14.80;;;30.00;63.70;;;;;;4912709;29;20503;-88
2022/09/07 14:47:47;;;;;;;15.33;14.70;;;29.90;65.10;;;;;;4914267;29;20461;-88
2022/09/07 14:50:18;;;;;;;15.73;14.73;;;29.90;65.40;;;;;;4917306;29;20655;-87
2022/09/07 14:52:49;;;;;;;14.60;13.90;;;29.80;66.10;;;;;;4927015;29;20454;-88
2022/09/07 14:55:28;;;;;;;15.43;14.87;;;29.70;66.20;;;;;;4916712;29;20543;-88
2022/09/07 14:58:10;;;;;;;16.03;15.03;;;29.70;66.10;;;;;;4916632;29;20443;-87
2022/09/07 15:00:37;;;;;;;14.80;14.00;;;29.80;67.00;;;;;;4899023;29;20590;-88
2022/09/07 15:03:29;;;;;;;15.27;14.63;;;29.90;66.30;;;;;;4895639;29;20451;-85
2022/09/07 15:05:56;;;;;;;14.73;13.73;;;30.00;66.60;;;;;;4895650;29;20541;-90
2022/09/07 15:08:38;;;;;;;14.40;13.70;;;30.20;66.30;;;;;;4895313;29;20455;-89
2022/09/07 15:11:08;;;;;;;16.17;15.37;;;30.50;64.40;;;;;;4894679;29;20443;-88
2022/09/07 15:13:36;;;;;;;14.27;13.67;;;30.50;64.50;;;;;;4895498;29;20467;-87
2022/09/07 15:16:05;;;;;;;15.43;14.53;;;30.30;64.70;;;;;;4891187;29;20502;-87
2022/09/07 15:19:04;;;;;;;15.53;14.63;;;30.20;65.70;;;;;;4893560;29;20557;-88
2022/09/07 15:21:34;;;;;;;15.00;14.00;;;30.00;65.40;;;;;;4816134;29;20916;-87
2022/09/07 15:24:02;;;;;;;14.97;14.30;;;29.70;66.50;;;;;;4880236;29;20451;-88
2022/09/07 15:26:37;;;;;;;15.40;14.67;;;29.60;66.90;;;;;;4899439;29;21014;-86
2022/09/07 15:29:05;;;;;;;16.03;14.90;;;29.50;67.70;;;;;;4898028;29;20815;-87
2022/09/07 15:31:35;;;;;;;15.23;14.57;;;29.40;68.50;;;;;;4896669;29;20462;-87
2022/09/07 15:34:06;;;;;;;15.33;14.73;;;29.40;68.20;;;;;;4895087;29;20546;-87
2022/09/07 15:36:33;;;;;;;15.73;14.80;;;29.40;68.40;;;;;;4896723;29;20459;-87
2022/09/07 15:38:59;;;;;;;15.70;15.00;;;29.40;68.20;;;;;;4896558;29;20462;-86
2022/09/07 15:41:27;;;;;;;15.93;14.93;;;29.50;68.60;;;;;;4896487;29;20459;-88
2022/09/07 15:43:55;;;;;;;16.07;15.37;;;29.50;69.20;;;;;;4894519;29;20462;-87
2022/09/07 15:46:22;;;;;;;16.40;15.23;;;29.60;68.90;;;;;;4896336;29;20459;-87
2022/09/07 15:48:50;;;;;;;17.77;16.53;;;29.50;68.90;;;;;;4897567;29;20455;-88
2022/09/07 15:51:17;;;;;;;15.70;15.00;;;29.30;69.00;;;;;;4896630;29;20511;-87
2022/09/07 15:53:44;;;;;;;14.70;14.00;;;29.30;68.20;;;;;;4896482;29;20463;-87
2022/09/07 15:56:11;;;;;;;15.27;14.57;;;29.20;68.50;;;;;;4896493;29;20646;-87
2022/09/07 15:58:38;;;;;;;15.50;14.70;;;29.10;68.80;;;;;;4896737;29;20467;-87
2022/09/07 16:01:06;;;;;;;15.63;15.00;;;29.10;69.60;;;;;;4896376;29;20498;-87
2022/09/07 16:03:32;;;;;;;16.50;15.60;;;29.10;69.50;;;;;;4896310;29;20463;-88
2022/09/07 16:05:59;;;;;;;15.83;15.00;;;29.20;69.30;;;;;;4896347;29;20466;-86
2022/09/07 16:08:27;;;;;;;15.37;14.77;;;29.40;69.10;;;;;;4896578;29;20843;-88
2022/09/07 16:10:53;;;;;;;15.03;14.43;;;29.40;69.40;;;;;;4896234;29;20491;-86
2022/09/07 16:13:22;;;;;;;16.77;15.90;;;29.50;69.20;;;;;;4896162;29;20462;-86
2022/09/07 16:15:49;;;;;;;15.00;14.30;;;29.40;70.70;;;;;;4896195;29;20859;-88
2022/09/07 16:18:18;;;;;;;15.60;14.90;;;29.30;71.60;;;;;;4896022;29;20511;-87
2022/09/07 16:20:45;;;;;;;14.10;13.50;;;29.20;71.30;;;;;;4895927;29;20510;-87
2022/09/07 16:23:14;;;;;;;15.40;14.70;;;28.80;71.90;;;;;;4896122;29;20467;-88
2022/09/07 16:25:42;;;;;;;15.70;15.00;;;28.70;73.00;;;;;;4896265;29;20462;-89
2022/09/07 16:28:09;;;;;;;14.43;13.70;;;28.80;73.70;;;;;;4898042;29;20542;-89
2022/09/07 16:30:39;;;;;;;14.23;13.63;;;28.60;72.80;;;;;;4902395;29;20502;-89
2022/09/07 16:33:06;;;;;;;15.00;14.20;;;28.50;73.90;;;;;;4899494;29;20490;-87
2022/09/07 16:35:34;;;;;;;13.93;13.23;;;28.20;74.20;;;;;;4902807;29;20463;-86
2022/09/07 16:38:02;;;;;;;14.93;14.27;;;28.10;74.00;;;;;;4896826;29;20455;-85
2022/09/07 16:40:28;;;;;;;15.50;14.67;;;28.00;74.40;;;;;;4895700;29;20526;-87
2022/09/07 16:42:55;;;;;;;14.60;13.90;;;27.90;73.90;;;;;;4898833;29;20473;-87
2022/09/07 16:45:22;;;;;;;14.73;14.03;;;27.80;73.60;;;;;;4895120;29;20475;-86
2022/09/07 16:47:49;;;;;;;14.07;13.27;;;27.70;73.80;;;;;;4900077;29;20466;-87
2022/09/07 16:50:15;;;;;;;15.80;14.90;;;27.70;74.60;;;;;;4906481;29;20858;-88
2022/09/07 16:52:44;;;;;;;14.87;14.07;;;27.60;74.90;;;;;;4899408;29;20963;-86
2022/09/07 16:55:10;;;;;;;15.30;14.50;;;27.60;75.20;;;;;;4895395;29;21193;-86
2022/09/07 16:57:37;;;;;;;14.10;13.50;;;27.40;75.70;;;;;;4895278;29;20828;-85
2022/09/07 17:00:05;;;;;;;15.47;14.30;;;27.30;76.50;;;;;;4903217;29;20982;-85
2022/09/07 17:02:31;;;;;;;14.37;13.67;;;27.30;77.40;;;;;;4903476;29;20443;-86
2022/09/07 17:04:58;;;;;;;16.53;15.10;;;27.20;78.80;;;;;;4904843;29;20442;-87
2022/09/07 17:07:25;;;;;;;15.60;14.50;;;27.00;80.10;;;;;;4903358;29;20471;-87
2022/09/07 17:09:54;;;;;;;15.00;14.30;;;26.90;80.90;;;;;;4903634;29;20490;-86
2022/09/07 17:12:21;;;;;;;15.97;15.13;;;26.90;82.30;;;;;;4904870;29;20450;-86
2022/09/07 17:14:47;;;;;;;16.60;15.70;;;26.70;83.20;;;;;;4904312;29;20451;-86
2022/09/07 17:17:15;;;;;;;14.90;13.77;;;26.60;84.30;;;;;;4903191;29;20443;-87
2022/09/07 17:19:41;;;;;;;16.07;14.97;;;26.50;84.40;;;;;;4897514;29;20443;-89
2022/09/07 17:22:08;;;;;;;14.83;13.83;;;26.50;85.30;;;;;;4895693;29;20463;-88
2022/09/07 17:24:35;;;;;;;14.60;13.80;;;26.40;86.40;;;;;;4895244;29;20526;-87
2022/09/07 17:27:03;;;;;;;15.40;14.57;;;26.30;86.30;;;;;;4894897;29;20467;-88